Time;durP1;ratioP1;P1;durP2;ratioP2;P2;SDS_P1;SDS_P2;PMS_P1;PMS_P2;Temp;Humidity;BMP_temperature;BMP_pressure;BME280_temperature;BME280_humidity;BME280_pressure;Samples;Min_cycle;Max_cycle;Signal;HPM_P1;HPM_P2
2022/05/27 00:00:00;;;;;;;;;;;;;;;7.99;56.89;99098.88;6251648;22;19915;-84
2022/05/27 00:02:26;;;;;;;;;;;;;;;7.95;57.51;99100.91;6201131;22;19915;-84
2022/05/27 00:04:52;;;;;;;;;;;;;;;7.89;57.85;99106.69;6226534;22;20327;-85
2022/05/27 00:07:17;;;;;;;;;;;;;;;7.89;57.63;99103.16;6250844;22;19926;-83
2022/05/27 00:09:43;;;;;;;;;;;;;;;7.86;58.21;99104.25;6225502;22;19919;-84
2022/05/27 00:12:09;;;;;;;;;;;;;;;7.85;57.86;99110.53;6277559;22;19914;-83
2022/05/27 00:14:34;;;;;;;;;;;;;;;7.86;58.57;99114.91;6250900;22;20319;-81
2022/05/27 00:17:00;;;;;;;;;;;;;;;7.85;58.27;99107.88;6277693;22;19946;-83
2022/05/27 00:19:26;;;;;;;;;;;;;;;7.85;58.27;99107.88;6250737;22;19922;-81
2022/05/27 00:21:52;;;;;;;;;;;;;;;7.89;58.18;99114.66;6250454;22;19921;-81
2022/05/27 00:24:18;;;;;;;;;;;;;;;7.89;57.85;99109.34;6224882;22;19919;-80
2022/05/27 00:26:43;;;;;;;;;;;;;;;7.91;58.24;99110.09;6199284;22;20239;-81
2022/05/27 00:29:09;;;;;;;;;;;;;;;7.95;58.20;99119.56;6250232;22;19919;-82
2022/05/27 00:31:35;;;;;;;;;;;;;;;7.99;58.02;99129.00;6224805;22;20216;-81
2022/05/27 00:34:00;;;;;;;;;;;;;;;8.02;58.13;99119.97;6199909;22;19953;-82
2022/05/27 00:36:26;;;;;;;;;;;;;;;8.06;57.86;99120.59;6225399;22;19922;-82
2022/05/27 00:38:52;;;;;;;;;;;;;;;8.07;57.85;99123.13;6225872;22;19915;-81
2022/05/27 00:41:18;;;;;;;;;;;;;;;8.04;58.13;99124.19;6224923;22;19941;-81
2022/05/27 00:43:44;;;;;;;;;;;;;;;8.12;57.78;99126.28;6200140;22;19915;-80
2022/05/27 00:46:12;;;;;;;;;;;;;;;8.10;57.67;99116.72;6250258;22;19915;-81
2022/05/27 00:48:39;;;;;;;;;;;;;;;8.15;57.49;99125.22;6199805;22;19968;-81
2022/05/27 00:51:07;;;;;;;;;;;;;;;8.18;57.72;99117.00;6200264;22;19957;-80
2022/05/27 00:53:36;;;;;;;;;;;;;;;8.23;57.56;99123.69;6249855;22;19915;-82
2022/05/27 00:56:04;;;;;;;;;;;;;;;8.25;57.64;99120.94;6249928;22;20337;-78
2022/05/27 00:58:40;;;;;;;;;;;;;;;8.30;57.51;99126.75;6249692;22;19915;-81
2022/05/27 01:01:06;;;;;;;;;;;;;;;8.36;57.44;99122.81;6200392;22;20327;-83
2022/05/27 01:03:32;;;;;;;;;;;;;;;8.40;57.30;99127.81;6250058;22;19922;-82
2022/05/27 01:05:58;;;;;;;;;;;;;;;8.46;57.43;99124.69;6224519;22;19922;-80
2022/05/27 01:08:24;;;;;;;;;;;;;;;8.49;56.90;99124.44;6225171;22;19972;-82
2022/05/27 01:10:53;;;;;;;;;;;;;;;8.41;56.92;99092.22;6199852;22;20090;-81
2022/05/27 01:13:19;;;;;;;;;;;;;;;8.63;56.71;99114.56;6225363;22;20081;-80
2022/05/27 01:15:53;;;;;;;;;;;;;;;8.63;57.29;99119.91;6227240;22;20262;-81
2022/05/27 01:20:18;;;;;;;;;;;;;;;8.66;57.00;99114.34;6201513;22;20289;-80
2022/05/27 01:21:14;;;;;;;;;;;;;;;8.69;56.88;99119.44;6277262;22;19922;-80
2022/05/27 01:23:39;;;;;;;;;;;;;;;8.67;57.39;99121.38;6199337;22;19922;-79
2022/05/27 01:26:11;;;;;;;;;;;;;;;8.74;56.82;99118.13;6249478;22;19915;-79
2022/05/27 01:28:57;;;;;;;;;;;;;;;8.69;57.18;99119.44;6200050;22;19950;-79
2022/05/27 01:31:40;;;;;;;;;;;;;;;8.78;57.16;99108.06;6224805;22;19942;-80
2022/05/27 01:34:15;;;;;;;;;;;;;;;8.91;56.47;99118.63;6224850;22;20297;-82
2022/05/27 01:36:53;;;;;;;;;;;;;;;8.94;56.75;99121.06;6249857;22;20346;-82
2022/05/27 01:39:24;;;;;;;;;;;;;;;8.91;56.83;99114.19;6249982;22;20262;-79
2022/05/27 01:41:57;;;;;;;;;;;;;;;8.94;56.52;99119.25;6250119;22;19922;-82
2022/05/27 01:44:41;;;;;;;;;;;;;;;8.98;56.51;99120.72;6224775;22;19944;-81
2022/05/27 01:47:11;;;;;;;;;;;;;;;9.05;56.19;99114.91;6224395;22;19976;-80
2022/05/27 01:49:39;;;;;;;;;;;;;;;8.98;56.57;99117.19;6249558;22;20259;-79
2022/05/27 01:52:08;;;;;;;;;;;;;;;8.95;56.67;99115.66;6224677;22;20330;-81
2022/05/27 01:54:46;;;;;;;;;;;;;;;8.96;56.91;99121.81;6251514;22;19937;-79
2022/05/27 01:57:16;;;;;;;;;;;;;;;8.95;57.06;99115.66;6251585;22;20354;-80
2022/05/27 02:00:00;;;;;;;;;;;;;;;9.03;57.15;99119.50;6200926;22;19915;-79
2022/05/27 02:02:27;;;;;;;;;;;;;;;9.16;56.67;99106.94;6251316;22;19915;-79
2022/05/27 02:04:58;;;;;;;;;;;;;;;9.26;56.29;99102.59;6225863;22;19915;-81
2022/05/27 02:07:26;;;;;;;;;;;;;;;9.35;56.03;99101.84;6251720;22;19993;-82
2022/05/27 02:10:03;;;;;;;;;;;;;;;9.47;55.95;99108.03;6200639;22;19919;-80
2022/05/27 02:12:31;;;;;;;;;;;;;;;9.55;55.88;99110.09;6251410;22;20002;-81
2022/05/27 02:15:01;;;;;;;;;;;;;;;9.63;55.55;99111.19;6250972;22;19922;-81
2022/05/27 02:17:32;;;;;;;;;;;;;;;9.68;55.30;99108.16;6279191;22;19915;-82
2022/05/27 02:20:01;;;;;;;;;;;;;;;9.63;55.65;99110.34;6226787;22;20314;-82
2022/05/27 02:22:31;;;;;;;;;;;;;;;9.75;55.29;99096.03;6251806;22;19958;-82
2022/05/27 02:25:02;;;;;;;;;;;;;;;9.81;55.02;99103.50;6226394;22;20002;-81
2022/05/27 02:27:37;;;;;;;;;;;;;;;9.92;54.82;99108.00;6251658;22;20263;-80
2022/05/27 02:30:08;;;;;;;;;;;;;;;10.02;54.49;99108.09;6200879;22;20293;-82
2022/05/27 02:32:37;;;;;;;;;;;;;;;10.07;54.44;99103.22;6200684;22;19915;-82
2022/05/27 02:35:17;;;;;;;;;;;;;;;10.05;54.80;99110.53;6250791;22;20006;-82
2022/05/27 02:37:42;;;;;;;;;;;;;;;10.15;54.74;99106.94;6226196;22;19915;-83
2022/05/27 02:40:22;;;;;;;;;;;;;;;10.21;54.44;99105.63;6200952;22;20394;-81
2022/05/27 02:43:06;;;;;;;;;;;;;;;10.29;54.63;99103.19;6225963;22;19919;-83
2022/05/27 02:45:49;;;;;;;;;;;;;;;10.36;54.51;99107.06;6250826;22;19919;-85
2022/05/27 02:48:29;;;;;;;;;;;;;;;10.40;54.42;99105.81;6252128;22;20339;-83
2022/05/27 02:51:04;;;;;;;;;;;;;;;10.50;54.67;99110.41;6201437;22;19919;-89
2022/05/27 02:53:48;;;;;;;;;;;;;;;10.56;55.03;99107.22;6226105;22;20089;-83
2022/05/27 02:56:40;;;;;;;;;;;;;;;10.66;54.84;99110.81;6201660;22;20258;-85
2022/05/27 02:59:08;;;;;;;;;;;;;;;10.78;54.37;99109.78;6195500;22;19922;-88
2022/05/27 03:01:34;;;;;;;;;;;;;;;10.82;54.86;99100.50;6226173;22;19915;-85
2022/05/27 03:03:59;;;;;;;;;;;;;;;10.98;54.11;99109.91;6251527;22;19915;-84
2022/05/27 03:06:25;;;;;;;;;;;;;;;11.11;53.78;99110.56;6225462;22;20331;-84
2022/05/27 03:09:07;;;;;;;;;;;;;;;11.22;53.84;99107.81;6251601;22;19926;-83
2022/05/27 03:11:42;;;;;;;;;;;;;;;11.37;53.47;99102.97;6200914;22;19915;-82
2022/05/27 03:14:19;;;;;;;;;;;;;;;11.55;53.66;99109.38;6278843;22;20290;-84
2022/05/27 03:17:11;;;;;;;;;;;;;;;11.72;53.28;99105.22;6227969;22;19914;-83
2022/05/27 03:19:40;;;;;;;;;;;;;;;11.86;52.90;99096.84;6182461;22;19915;-82
2022/05/27 03:22:22;;;;;;;;;;;;;;;11.88;53.19;99099.34;6201328;22;19923;-83
2022/05/27 03:25:12;;;;;;;;;;;;;;;11.96;52.85;99102.22;6227104;22;19919;-85
2022/05/27 03:27:46;;;;;;;;;;;;;;;12.06;52.56;99097.72;6186838;22;20461;-82
2022/05/27 03:30:16;;;;;;;;;;;;;;;12.13;52.87;99100.69;6204326;22;19915;-82
2022/05/27 03:32:41;;;;;;;;;;;;;;;12.26;52.73;99095.94;6204822;22;19915;-83
2022/05/27 03:35:26;;;;;;;;;;;;;;;12.33;52.50;99107.75;6202067;22;20247;-81
2022/05/27 03:37:57;;;;;;;;;;;;;;;12.49;52.43;99103.72;6251058;22;19915;-79
2022/05/27 03:40:34;;;;;;;;;;;;;;;12.56;52.06;99110.16;6250713;22;19918;-80
2022/05/27 03:43:01;;;;;;;;;;;;;;;12.69;52.06;99093.81;6200461;22;20001;-81
2022/05/27 03:45:26;;;;;;;;;;;;;;;12.84;51.42;99090.53;6200054;22;19923;-86
2022/05/27 03:47:52;;;;;;;;;;;;;;;13.01;51.11;99101.53;6200258;22;19915;-84
2022/05/27 03:50:23;;;;;;;;;;;;;;;13.19;50.70;99090.91;6219837;23;19962;-78
2022/05/27 03:52:51;;;;;;;;;;;;;;;13.34;50.51;99095.69;6219877;23;19915;-79
2022/05/27 03:55:19;;;;;;;;;;;;;;;13.45;49.67;99091.97;6194915;23;19915;-81
2022/05/27 03:57:45;;;;;;;;;;;;;;;13.49;50.04;99090.69;6219458;23;19942;-78
2022/05/27 04:00:13;;;;;;;;;;;;;;;13.70;49.94;99086.94;6194985;23;19915;-79
2022/05/27 04:02:39;;;;;;;;;;;;;;;13.83;49.37;99090.94;6194596;23;19919;-80
2022/05/27 04:05:05;;;;;;;;;;;;;;;13.85;48.81;99082.75;6195547;23;19916;-81
2022/05/27 04:07:31;;;;;;;;;;;;;;;13.93;48.97;99079.31;6244941;23;19954;-79
2022/05/27 04:09:57;;;;;;;;;;;;;;;14.09;48.54;99082.16;6245223;23;19919;-80
2022/05/27 04:12:22;;;;;;;;;;;;;;;14.14;48.69;99087.06;6195180;23;19951;-80
2022/05/27 04:14:52;;;;;;;;;;;;;;;14.29;48.49;99080.19;6246020;23;19969;-77
2022/05/27 04:17:33;;;;;;;;;;;;;;;14.29;47.72;99080.19;6246933;22;19958;-79
2022/05/27 04:20:04;;;;;;;;;;;;;;;14.48;47.28;99079.19;6194380;23;19998;-78
2022/05/27 04:22:30;;;;;;;;;;;;;;;14.48;47.20;99085.44;6219829;23;19916;-78
2022/05/27 04:24:56;;;;;;;;;;;;;;;14.57;47.10;99078.31;6219232;23;19922;-78
2022/05/27 04:27:22;;;;;;;;;;;;;;;14.63;46.91;99074.13;6218877;23;20262;-77
2022/05/27 04:29:49;;;;;;;;;;;;;;;14.84;46.89;99073.81;6219405;23;19950;-78
2022/05/27 04:32:15;;;;;;;;;;;;;;;14.99;46.36;99072.25;6219413;23;19915;-79
2022/05/27 04:34:41;;;;;;;;;;;;;;;14.95;45.94;99076.25;6244480;23;19915;-79
2022/05/27 04:37:07;;;;;;;;;;;;;;;15.02;45.70;99074.63;6244273;23;19919;-78
2022/05/27 04:39:33;;;;;;;;;;;;;;;15.00;45.89;99063.16;6218930;23;20306;-78
2022/05/27 04:41:59;;;;;;;;;;;;;;;15.23;45.97;99061.66;6243967;22;19950;-79
2022/05/27 04:44:25;;;;;;;;;;;;;;;15.47;45.86;99065.47;6192719;23;19953;-77
2022/05/27 04:46:54;;;;;;;;;;;;;;;15.64;45.05;99061.81;6194473;23;20283;-78
2022/05/27 04:52:05;;;;;;;;;;;;;;;15.70;44.46;99077.38;6223960;22;19915;-78
2022/05/27 04:54:30;;;;;;;;;;;;;;;15.84;43.70;99072.41;6276337;22;19915;-78
2022/05/27 04:56:57;;;;;;;;;;;;;;;15.74;43.94;99072.53;6224211;22;19915;-78
2022/05/27 04:59:22;;;;;;;;;;;;;;;15.87;44.17;99064.84;6224574;22;19919;-77
2022/05/27 05:01:48;;;;;;;;;;;;;;;15.98;44.02;99058.28;6249484;22;19919;-79
2022/05/27 05:04:15;;;;;;;;;;;;;;;16.12;43.58;99063.03;6198901;22;19989;-77
2022/05/27 05:06:41;;;;;;;;;;;;;;;16.12;43.43;99054.09;6276691;22;19967;-78
2022/05/27 05:09:07;;;;;;;;;;;;;;;16.22;43.71;99050.25;6249131;22;19942;-78
2022/05/27 05:11:33;;;;;;;;;;;;;;;16.39;43.42;99051.09;6251244;22;19953;-79
2022/05/27 05:13:58;;;;;;;;;;;;;;;16.51;43.22;99041.69;6200687;22;19951;-78
2022/05/27 05:16:25;;;;;;;;;;;;;;;16.54;42.85;99037.78;6226271;22;20289;-79
2022/05/27 05:18:50;;;;;;;;;;;;;;;16.70;43.13;99039.69;6276742;22;20361;-78
2022/05/27 05:21:16;;;;;;;;;;;;;;;16.80;42.08;99032.25;6224928;22;19915;-78
2022/05/27 05:23:42;;;;;;;;;;;;;;;16.91;42.06;99034.59;6276832;22;20247;-78
2022/05/27 05:26:08;;;;;;;;;;;;;;;16.86;42.15;99038.84;6276468;22;20301;-78
2022/05/27 05:28:33;;;;;;;;;;;;;;;16.95;42.12;99040.50;6200710;22;19915;-78
2022/05/27 05:30:59;;;;;;;;;;;;;;;17.04;41.29;99031.41;6276926;22;19922;-78
2022/05/27 05:33:25;;;;;;;;;;;;;;;17.08;40.96;99029.19;6251112;22;19915;-77
2022/05/27 05:35:51;;;;;;;;;;;;;;;17.17;40.56;99026.28;6278849;22;19914;-78
2022/05/27 05:38:19;;;;;;;;;;;;;;;17.24;40.57;99021.03;6201357;22;19930;-78
2022/05/27 05:40:45;;;;;;;;;;;;;;;17.14;40.42;99028.50;6278326;22;20421;-78
2022/05/27 05:43:11;;;;;;;;;;;;;;;17.18;40.52;99030.66;6226106;22;19946;-79
2022/05/27 05:45:37;;;;;;;;;;;;;;;17.28;39.98;99035.06;6252078;22;19938;-79
2022/05/27 05:48:03;;;;;;;;;;;;;;;17.27;40.70;99023.41;6251534;22;20354;-79
2022/05/27 05:50:29;;;;;;;;;;;;;;;17.31;40.72;99023.91;6220771;23;19922;-78
2022/05/27 05:52:54;;;;;;;;;;;;;;;17.51;40.37;99016.22;6247015;23;19915;-79
2022/05/27 05:55:20;;;;;;;;;;;;;;;17.78;39.62;99013.06;6221396;23;20364;-79
2022/05/27 05:57:47;;;;;;;;;;;;;;;17.83;39.50;99023.38;6220756;23;19958;-79
2022/05/27 06:00:15;;;;;;;;;;;;;;;17.90;39.38;99013.53;6196620;23;19921;-78
2022/05/27 06:02:41;;;;;;;;;;;;;;;17.95;39.57;99003.03;6221106;23;19923;-78
2022/05/27 06:05:07;;;;;;;;;;;;;;;17.93;39.59;99002.34;6247865;22;19916;-77
2022/05/27 06:07:33;;;;;;;;;;;;;;;18.03;39.95;99002.97;6246648;23;20009;-79
2022/05/27 06:09:59;;;;;;;;;;;;;;;18.00;39.22;98997.06;6221215;23;20370;-79
2022/05/27 06:12:26;;;;;;;;;;;;;;;18.11;38.79;98983.16;6221676;23;20251;-78
2022/05/27 06:14:53;;;;;;;;;;;;;;;18.30;38.54;98985.38;6196519;23;20244;-79
2022/05/27 06:17:20;;;;;;;;;;;;;;;18.40;37.79;98993.25;6196641;23;19915;-79
2022/05/27 06:19:46;;;;;;;;;;;;;;;18.52;36.73;98991.78;6221120;23;20304;-80
2022/05/27 06:22:11;;;;;;;;;;;;;;;18.45;37.07;98991.66;6220814;23;20047;-78
2022/05/27 06:24:37;;;;;;;;;;;;;;;18.76;37.29;98984.50;6221593;23;19919;-78
2022/05/27 06:27:07;;;;;;;;;;;;;;;18.88;36.52;98983.00;6247286;22;19916;-79
2022/05/27 06:35:06;;;;;;;;;;;;;;;19.06;35.10;98994.34;6192115;23;19915;-78
2022/05/27 06:37:32;;;;;;;;;;;;;;;19.13;34.74;98979.00;6220546;23;19916;-79
2022/05/27 06:39:58;;;;;;;;;;;;;;;19.23;35.21;98972.50;6246297;23;20168;-80
2022/05/27 06:42:23;;;;;;;;;;;;;;;19.29;35.24;98985.28;6220350;23;20328;-79
2022/05/27 06:44:55;;;;;;;;;;;;;;;19.23;34.72;98954.38;6221530;23;19916;-79
2022/05/27 06:47:21;;;;;;;;;;;;;;;19.17;35.46;98980.31;6195642;23;20335;-79
2022/05/27 06:49:47;;;;;;;;;;;;;;;19.33;35.85;98978.44;6266289;22;19941;-79
2022/05/27 06:52:13;;;;;;;;;;;;;;;19.45;34.95;98968.84;6200128;22;19969;-79
2022/05/27 06:54:39;;;;;;;;;;;;;;;19.56;35.10;98971.06;6249909;22;19919;-78
2022/05/27 06:57:06;;;;;;;;;;;;;;;19.63;34.58;98953.03;6225510;22;19919;-79
2022/05/27 06:59:32;;;;;;;;;;;;;;;19.65;35.26;98978.06;6250833;22;19922;-81
2022/05/27 07:01:58;;;;;;;;;;;;;;;19.55;35.47;98971.22;6225909;22;19926;-79
2022/05/27 07:04:24;;;;;;;;;;;;;;;19.63;36.01;98946.75;6251322;22;19915;-79
2022/05/27 07:06:50;;;;;;;;;;;;;;;20.02;35.79;98951.78;6283603;22;19915;-84
2022/05/27 07:09:18;;;;;;;;;;;;;;;20.24;35.98;98949.94;6206625;22;20403;-85
2022/05/27 07:11:45;;;;;;;;;;;;;;;20.53;36.13;98943.50;6251988;22;19922;-81
2022/05/27 07:14:12;;;;;;;;;;;;;;;20.64;35.72;98950.28;6200264;22;20353;-89
2022/05/27 07:16:38;;;;;;;;;;;;;;;20.76;34.39;98939.72;6251233;22;20287;-83
2022/05/27 07:19:04;;;;;;;;;;;;;;;20.58;34.04;98956.50;6225790;22;20293;-89
2022/05/27 07:21:30;;;;;;;;;;;;;;;20.20;34.76;98934.19;6277776;22;19914;-81
2022/05/27 07:23:56;;;;;;;;;;;;;;;20.51;35.10;98937.44;6250237;22;19926;-82
2022/05/27 07:26:24;;;;;;;;;;;;;;;20.60;34.00;98954.44;6250473;22;19919;-83
2022/05/27 07:28:50;;;;;;;;;;;;;;;20.67;33.92;98930.88;6225423;22;19940;-81
2022/05/27 07:31:17;;;;;;;;;;;;;;;20.73;34.37;98921.13;6250551;22;20012;-88
2022/05/27 07:33:45;;;;;;;;;;;;;;;20.57;34.56;98928.53;6251143;22;19922;-86
2022/05/27 07:36:12;;;;;;;;;;;;;;;20.83;34.20;98932.44;6225326;22;19915;-83
2022/05/27 07:38:37;;;;;;;;;;;;;;;20.97;33.67;98928.78;6250250;22;19915;-84
2022/05/27 07:41:04;;;;;;;;;;;;;;;20.93;31.26;98935.66;6225302;22;19922;-84
2022/05/27 07:43:29;;;;;;;;;;;;;;;20.80;31.53;98924.72;6250134;22;19915;-81
2022/05/27 07:45:56;;;;;;;;;;;;;;;20.95;32.50;98920.00;6250488;22;19926;-87
2022/05/27 07:48:22;;;;;;;;;;;;;;;21.38;32.84;98917.13;6199175;22;19915;-79
2022/05/27 07:50:48;;;;;;;;;;;;;;;21.41;31.08;98922.16;6276983;22;20270;-78
2022/05/27 07:53:13;;;;;;;;;;;;;;;21.42;30.21;98909.38;6249871;22;19922;-82
2022/05/27 07:55:39;;;;;;;;;;;;;;;21.64;30.08;98907.38;6276843;22;20002;-85
2022/05/27 07:58:05;;;;;;;;;;;;;;;21.70;29.89;98909.25;6199522;22;19915;-84
2022/05/27 08:00:32;;;;;;;;;;;;;;;21.58;29.77;98909.84;6224809;22;19922;-84
2022/05/27 08:02:58;;;;;;;;;;;;;;;21.70;29.63;98907.41;6276650;22;19923;-83
2022/05/27 08:05:26;;;;;;;;;;;;;;;21.92;28.77;98899.91;6277015;22;19922;-83
2022/05/27 08:07:52;;;;;;;;;;;;;;;22.06;28.50;98901.59;6225209;22;20196;-87
2022/05/27 08:10:20;;;;;;;;;;;;;;;22.19;28.46;98895.38;6277588;22;19969;-86
2022/05/27 08:12:46;;;;;;;;;;;;;;;22.33;28.90;98898.09;6225280;22;20224;-82
2022/05/27 08:15:12;;;;;;;;;;;;;;;22.43;28.77;98885.72;6249982;22;19915;-83
2022/05/27 08:17:38;;;;;;;;;;;;;;;22.52;28.35;98889.06;6248930;22;19923;-83
2022/05/27 08:20:05;;;;;;;;;;;;;;;22.84;28.46;98895.53;6225438;22;20005;-82
2022/05/27 08:22:31;;;;;;;;;;;;;;;22.66;27.69;98907.09;6226991;22;19914;-83
2022/05/27 08:24:57;;;;;;;;;;;;;;;22.85;27.79;98886.28;6224948;22;19961;-81
2022/05/27 08:27:23;;;;;;;;;;;;;;;22.77;27.75;98887.38;6198870;22;19915;-78
2022/05/27 08:29:48;;;;;;;;;;;;;;;22.93;28.29;98897.00;6249450;22;20352;-79
2022/05/27 08:32:14;;;;;;;;;;;;;;;22.98;27.93;98902.66;6249823;22;19915;-87
2022/05/27 08:40:11;;;;;;;;;;;;;;;24.23;27.32;98896.81;6249758;22;20053;-78
2022/05/27 08:42:49;;;;;;;;;;;;;;;24.40;27.42;98892.47;6249423;22;19914;-77
2022/05/27 08:45:21;;;;;;;;;;;;;;;24.36;26.07;98891.22;6249658;22;20001;-78
2022/05/27 08:47:52;;;;;;;;;;;;;;;23.98;26.97;98897.59;6249495;22;20001;-77
2022/05/27 08:50:35;;;;;;;;;;;;;;;24.14;26.60;98898.13;6276982;22;20033;-77
2022/05/27 08:53:12;;;;;;;;;;;;;;;24.34;26.26;98893.38;6199398;22;19915;-78
2022/05/27 09:01:21;;;;;;;;;;;;;;;24.99;26.76;98890.25;6249317;22;19915;-77
2022/05/27 09:04:13;;;;;;;;;;;;;;;25.22;25.87;98886.84;6249481;22;19997;-77
2022/05/27 09:06:48;;;;;;;;;;;;;;;25.15;26.21;98877.88;6178392;22;19926;-77
2022/05/27 09:09:18;;;;;;;;;;;;;;;24.93;25.86;98875.56;6249792;22;19919;-76
2022/05/27 09:11:50;;;;;;;;;;;;;;;24.99;26.13;98873.84;6276951;22;19922;-77
2022/05/27 09:14:20;;;;;;;;;;;;;;;25.09;26.70;98884.25;6249409;22;19922;-76
2022/05/27 09:16:54;;;;;;;;;;;;;;;25.10;26.34;98869.53;6249627;22;19922;-78
2022/05/27 09:19:25;;;;;;;;;;;;;;;25.44;26.46;98866.16;6249467;22;19915;-78
2022/05/27 09:21:56;;;;;;;;;;;;;;;25.43;25.85;98875.44;6249727;22;20285;-77
2022/05/27 09:24:30;;;;;;;;;;;;;;;25.38;25.68;98878.00;6199324;22;19988;-78
2022/05/27 09:27:08;;;;;;;;;;;;;;;25.52;25.75;98872.38;6224277;22;19919;-78
2022/05/27 09:29:53;;;;;;;;;;;;;;;25.11;26.16;98868.47;6224094;22;19915;-77
2022/05/27 09:32:37;;;;;;;;;;;;;;;24.77;26.49;98859.78;6224201;22;20317;-78
2022/05/27 09:35:05;;;;;;;;;;;;;;;24.69;27.11;98865.53;6199069;22;19916;-78
2022/05/27 09:37:34;;;;;;;;;;;;;;;25.10;26.36;98869.53;6249024;22;20323;-78
2022/05/27 09:40:03;;;;;;;;;;;;;;;25.31;26.01;98860.88;6276480;22;19915;-78
2022/05/27 09:42:31;;;;;;;;;;;;;;;24.90;26.42;98870.56;6276601;22;19919;-78
2022/05/27 09:44:58;;;;;;;;;;;;;;;24.63;26.93;98858.22;6224117;22;19915;-80
2022/05/27 09:47:30;;;;;;;;;;;;;;;24.11;27.86;98876.72;6224393;22;20221;-78
2022/05/27 09:49:58;;;;;;;;;;;;;;;23.88;28.13;98863.66;6193714;23;20266;-79
2022/05/27 09:52:25;;;;;;;;;;;;;;;23.77;28.35;98867.94;6218678;23;19916;-76
2022/05/27 09:54:54;;;;;;;;;;;;;;;23.87;28.65;98854.63;6218031;23;19947;-79
2022/05/27 09:57:25;;;;;;;;;;;;;;;23.91;28.55;98855.84;6193989;23;19915;-79
2022/05/27 09:59:56;;;;;;;;;;;;;;;23.75;29.35;98861.84;6244706;23;19916;-78
2022/05/27 10:02:28;;;;;;;;;;;;;;;23.87;29.10;98860.09;6219105;23;19922;-78
2022/05/27 10:04:58;;;;;;;;;;;;;;;23.84;29.54;98855.06;6193879;23;19916;-78
2022/05/27 10:07:32;;;;;;;;;;;;;;;23.79;29.73;98851.34;6194082;23;20003;-77
2022/05/27 10:10:15;;;;;;;;;;;;;;;23.88;29.71;98845.41;6245169;23;19923;-78
2022/05/27 10:12:41;;;;;;;;;;;;;;;23.98;29.42;98858.56;6219121;23;19916;-79
2022/05/27 10:15:06;;;;;;;;;;;;;;;24.02;29.62;98850.75;6246142;23;20053;-78
2022/05/27 10:17:36;;;;;;;;;;;;;;;23.91;29.96;98844.94;6246163;23;19939;-78
2022/05/27 10:20:22;;;;;;;;;;;;;;;23.94;29.97;98839.03;6220915;23;20263;-77
2022/05/27 10:22:59;;;;;;;;;;;;;;;23.95;30.07;98837.97;6246636;23;19961;-77
2022/05/27 10:25:29;;;;;;;;;;;;;;;24.22;30.30;98835.91;6246447;23;19915;-78
2022/05/27 10:27:55;;;;;;;;;;;;;;;24.68;29.64;98831.06;6220215;23;19915;-78
2022/05/27 10:30:23;;;;;;;;;;;;;;;24.98;28.84;98817.50;6246362;23;19916;-78
2022/05/27 10:32:49;;;;;;;;;;;;;;;24.88;28.95;98815.28;6195614;23;19919;-78
2022/05/27 10:35:21;;;;;;;;;;;;;;;24.70;29.62;98826.19;6245903;23;19998;-78
2022/05/27 10:37:59;;;;;;;;;;;;;;;24.47;29.92;98827.69;6220452;23;19915;-79
2022/05/27 10:40:37;;;;;;;;;;;;;;;24.16;30.20;98812.19;6245175;23;19943;-79
2022/05/27 10:43:21;;;;;;;;;;;;;;;24.28;30.12;98809.56;6245529;23;19915;-78
2022/05/27 10:45:50;;;;;;;;;;;;;;;24.65;29.90;98799.56;6245978;23;19941;-79
2022/05/27 10:48:35;;;;;;;;;;;;;;;25.57;29.37;98799.44;6246674;23;20242;-79
2022/05/27 10:51:04;;;;;;;;;;;;;;;26.25;27.65;98803.66;6220185;23;19915;-80
2022/05/27 10:53:50;;;;;;;;;;;;;;;26.27;27.38;98798.78;6195075;23;19922;-79
2022/05/27 10:56:21;;;;;;;;;;;;;;;26.68;26.96;98794.28;6219602;23;20260;-79
2022/05/27 11:02:05;;;;;;;;;;;;;;;26.47;27.09;98778.44;6246225;23;19916;-78
2022/05/27 11:04:43;;;;;;;;;;;;;;;25.70;28.21;98782.00;6219949;23;19915;-80
2022/05/27 11:07:27;;;;;;;;;;;;;;;25.16;28.85;98783.81;6194989;23;20320;-79
2022/05/27 11:10:01;;;;;;;;;;;;;;;24.58;29.68;98778.84;6220307;23;20010;-80
2022/05/27 11:15:43;;;;;;;;;;;;;;;23.93;30.96;98788.25;6178076;23;19915;-79
2022/05/27 11:18:28;;;;;;;;;;;;;;;23.56;31.60;98786.41;6246362;23;19923;-79
2022/05/27 11:20:54;;;;;;;;;;;;;;;23.15;32.31;98776.78;6219506;23;19922;-80
2022/05/27 11:23:20;;;;;;;;;;;;;;;22.90;32.63;98772.03;6193324;23;19915;-80
2022/05/27 11:26:06;;;;;;;;;;;;;;;22.73;33.04;98773.56;6192863;23;19915;-80
2022/05/27 11:28:44;;;;;;;;;;;;;;;22.48;34.03;98784.31;6233802;22;19915;-80
2022/05/27 11:31:21;;;;;;;;;;;;;;;22.21;34.94;98800.72;6194808;23;20339;-78
2022/05/27 11:33:56;;;;;;;;;;;;;;;21.93;36.13;98825.41;6193398;23;19923;-79
2022/05/27 11:36:28;;;;;;;;;;;;;;;21.23;40.23;98862.03;6218409;23;19930;-79
2022/05/27 11:39:02;;;;;;;;;;;;;;;20.00;42.06;98812.75;6245874;22;19915;-78
2022/05/27 11:41:42;;;;;;;;;;;;;;;19.71;44.13;98818.34;6193864;23;20324;-78
2022/05/27 11:44:23;;;;;;;;;;;;;;;20.02;43.78;98810.72;6194197;23;19915;-79
2022/05/27 11:46:55;;;;;;;;;;;;;;;21.14;42.71;98803.44;6194505;23;19972;-79
2022/05/27 11:49:23;;;;;;;;;;;;;;;23.01;39.57;98793.19;6220367;23;20247;-79
2022/05/27 11:51:49;;;;;;;;;;;;;;;24.44;36.46;98783.59;6245739;23;20005;-77
2022/05/27 11:54:27;;;;;;;;;;;;;;;26.04;33.69;98776.88;6244730;23;19916;-80
2022/05/27 11:56:56;;;;;;;;;;;;;;;27.01;30.77;98774.41;6195735;23;19915;-80
2022/05/27 11:59:27;;;;;;;;;;;;;;;26.79;30.57;98771.47;6195134;23;19916;-80
2022/05/27 12:01:59;;;;;;;;;;;;;;;26.19;31.60;98769.00;6246530;23;19915;-78
2022/05/27 12:04:54;;;;;;;;;;;;;;;26.08;31.25;98772.56;6219868;23;20013;-80
2022/05/27 12:07:25;;;;;;;;;;;;;;;25.63;31.31;98771.16;6219381;23;19962;-81
2022/05/27 12:10:00;;;;;;;;;;;;;;;25.54;31.41;98766.25;6220477;23;19943;-82
2022/05/27 12:12:30;;;;;;;;;;;;;;;25.56;31.40;98756.75;6247132;23;19922;-79
2022/05/27 12:15:00;;;;;;;;;;;;;;;26.64;29.79;98746.47;6250866;22;19923;-82
2022/05/27 12:17:35;;;;;;;;;;;;;;;27.84;28.75;98753.78;6221992;23;20357;-81
2022/05/27 12:20:01;;;;;;;;;;;;;;;29.67;26.95;98759.22;6244823;23;19916;-81
2022/05/27 12:22:33;;;;;;;;;;;;;;;30.87;25.32;98750.44;6220065;23;19969;-80
2022/05/27 12:25:04;;;;;;;;;;;;;;;31.93;24.09;98746.28;6226130;23;20319;-81
2022/05/27 12:27:31;;;;;;;;;;;;;;;31.95;23.91;98754.31;6253039;23;19938;-81
2022/05/27 12:29:58;;;;;;;;;;;;;;;31.65;24.23;98750.41;6244834;23;20007;-79
2022/05/27 12:32:25;;;;;;;;;;;;;;;31.86;24.03;98740.22;6245853;22;19923;-80
2022/05/27 12:34:51;;;;;;;;;;;;;;;32.50;23.81;98736.84;6219381;23;20340;-80
2022/05/27 12:37:19;;;;;;;;;;;;;;;31.48;24.46;98744.28;6245746;22;19922;-78
2022/05/27 12:39:47;;;;;;;;;;;;;;;31.72;24.53;98745.44;6219199;23;20422;-80
2022/05/27 12:42:16;;;;;;;;;;;;;;;31.95;23.79;98730.28;6244474;23;19915;-80
2022/05/27 12:44:42;;;;;;;;;;;;;;;31.53;24.28;98736.84;6219231;23;19915;-79
2022/05/27 12:47:25;;;;;;;;;;;;;;;31.39;24.70;98732.97;6244422;23;20258;-78
2022/05/27 12:50:26;;;;;;;;;;;;;;;31.58;24.40;98731.31;6194126;23;19915;-77
2022/05/27 12:52:53;;;;;;;;;;;;;;;31.88;24.04;98725.00;6187494;23;19915;-79
2022/05/27 13:00:55;;;;;;;;;;;;;;;32.90;23.10;98712.88;6257303;22;19919;-79
2022/05/27 13:01:19;;;;;;;;;;;;;;;32.91;22.60;98711.75;6244546;23;19915;-80
2022/05/27 13:03:48;;;;;;;;;;;;;;;32.24;23.63;98718.63;6219474;23;19997;-79
2022/05/27 13:06:19;;;;;;;;;;;;;;;31.37;24.41;98711.16;6245505;22;19922;-78
2022/05/27 13:08:47;;;;;;;;;;;;;;;30.56;24.90;98706.13;6245149;22;20267;-79
2022/05/27 13:11:34;;;;;;;;;;;;;;;29.35;26.47;98707.69;6244370;23;19915;-78
2022/05/27 13:14:02;;;;;;;;;;;;;;;28.31;27.73;98703.91;6233695;23;20358;-77
2022/05/27 13:16:47;;;;;;;;;;;;;;;27.48;29.04;98699.28;6244002;23;19943;-77
2022/05/27 13:19:26;;;;;;;;;;;;;;;26.98;30.10;98700.84;6244273;23;20277;-78
2022/05/27 13:21:52;;;;;;;;;;;;;;;26.54;30.62;98697.75;6245680;22;19916;-78
2022/05/27 13:24:17;;;;;;;;;;;;;;;26.02;31.45;98685.88;6218672;23;19915;-78
2022/05/27 13:26:52;;;;;;;;;;;;;;;25.99;32.05;98697.31;6218930;23;19919;-78
2022/05/27 13:29:31;;;;;;;;;;;;;;;26.83;31.35;98697.78;6219782;23;20355;-77
2022/05/27 13:31:59;;;;;;;;;;;;;;;27.22;30.30;98696.09;6244144;23;19915;-78